Time;durP1;ratioP1;P1;durP2;ratioP2;P2;SDS_P1;SDS_P2;PMS_P1;PMS_P2;Temp;Humidity;BMP_temperature;BMP_pressure;BME280_temperature;BME280_humidity;BME280_pressure;Samples;Min_cycle;Max_cycle;Signal;HPM_P1;HPM_P2
2022/05/20 00:00:19;;;;;;;4.43;3.20;;;21.60;86.40;;;;;;5036287;28;20435;-45
2022/05/20 00:02:46;;;;;;;4.40;2.03;;;22.10;87.20;;;;;;5036711;28;20443;-44
2022/05/20 00:05:13;;;;;;;5.07;2.60;;;22.10;87.80;;;;;;5036194;28;21010;-44
2022/05/20 00:07:40;;;;;;;4.00;2.93;;;21.90;88.50;;;;;;5034538;28;20485;-44
2022/05/20 00:10:08;;;;;;;3.37;2.50;;;21.80;88.80;;;;;;5035844;28;20533;-44
2022/05/20 00:12:35;;;;;;;4.50;3.37;;;22.10;89.30;;;;;;5036221;28;20442;-44
2022/05/20 00:15:04;;;;;;;5.87;2.77;;;21.90;90.00;;;;;;5036012;28;20491;-44
2022/05/20 00:17:31;;;;;;;6.20;2.93;;;21.80;90.10;;;;;;5035706;28;20649;-44
2022/05/20 00:19:57;;;;;;;3.00;2.70;;;21.50;90.00;;;;;;5035600;28;20962;-44
2022/05/20 00:22:24;;;;;;;3.23;2.87;;;22.00;90.50;;;;;;5035816;28;20442;-44
2022/05/20 00:27:35;;;;;;;3.47;2.83;;;21.50;90.80;;;;;;5034475;28;20424;-44
2022/05/20 00:30:03;;;;;;;6.50;3.00;;;21.50;90.90;;;;;;5033890;28;20436;-44
2022/05/20 00:32:30;;;;;;;5.73;3.70;;;21.70;91.30;;;;;;5034136;28;20435;-44
2022/05/20 00:34:56;;;;;;;3.97;3.03;;;21.20;91.10;;;;;;5033671;28;20979;-45
2022/05/20 00:37:23;;;;;;;3.70;2.67;;;21.80;92.00;;;;;;5034075;28;20460;-44
2022/05/20 00:39:49;;;;;;;4.63;3.10;;;21.50;91.90;;;;;;5034090;28;20438;-44
2022/05/20 00:42:19;;;;;;;6.30;2.83;;;21.30;92.00;;;;;;5033885;28;20453;-44
2022/05/20 00:44:46;;;;;;;4.63;3.20;;;21.40;92.30;;;;;;5033908;28;20473;-44
2022/05/20 00:47:14;;;;;;;5.27;3.03;;;21.40;92.60;;;;;;5033683;28;20802;-44
2022/05/20 00:49:45;;;;;;;4.40;3.50;;;21.30;92.60;;;;;;5033454;28;20438;-44
2022/05/20 00:52:16;;;;;;;5.57;3.50;;;21.60;93.00;;;;;;5034098;28;20431;-44
2022/05/20 00:54:46;;;;;;;13.07;3.73;;;21.20;93.10;;;;;;5033155;28;20478;-44
2022/05/20 00:57:16;;;;;;;8.33;4.50;;;21.10;93.40;;;;;;5033862;28;20446;-44
2022/05/20 00:59:47;;;;;;;4.00;3.17;;;21.30;93.80;;;;;;5033267;28;20446;-44
2022/05/20 01:02:18;;;;;;;5.50;3.47;;;21.30;94.20;;;;;;5034096;28;20861;-44
2022/05/20 01:04:45;;;;;;;5.73;3.20;;;21.00;94.30;;;;;;5033524;28;20473;-44
2022/05/20 01:07:13;;;;;;;9.10;3.70;;;20.90;94.40;;;;;;5033740;28;20928;-44
2022/05/20 01:09:40;;;;;;;4.20;3.30;;;21.00;94.80;;;;;;5033036;28;20441;-44
2022/05/20 01:12:08;;;;;;;6.73;3.20;;;20.60;94.50;;;;;;5033372;28;20438;-44
2022/05/20 01:14:35;;;;;;;3.40;2.87;;;21.20;95.10;;;;;;5033527;28;20524;-44
2022/05/20 01:17:02;;;;;;;5.27;3.03;;;20.80;95.10;;;;;;5034110;28;20436;-43
2022/05/20 01:19:36;;;;;;;3.53;3.23;;;21.10;95.50;;;;;;5033570;28;20443;-45
2022/05/20 01:22:05;;;;;;;4.00;3.13;;;20.90;95.50;;;;;;5033970;28;20442;-45
2022/05/20 01:24:34;;;;;;;3.47;3.10;;;20.80;95.70;;;;;;5033018;28;20480;-45
2022/05/20 01:27:00;;;;;;;3.47;2.80;;;20.50;95.80;;;;;;5032840;28;20429;-44
2022/05/20 01:29:27;;;;;;;6.00;3.90;;;20.80;96.30;;;;;;5032568;28;20536;-45
2022/05/20 01:31:54;;;;;;;4.47;3.40;;;20.60;96.40;;;;;;5033104;28;20835;-45
2022/05/20 01:34:21;;;;;;;11.17;4.60;;;20.70;97.20;;;;;;5032678;28;20472;-45
2022/05/20 01:36:48;;;;;;;5.47;4.13;;;20.70;97.40;;;;;;5033148;28;20953;-45
2022/05/20 01:39:14;;;;;;;5.70;3.17;;;20.40;97.30;;;;;;5032652;28;20443;-45
2022/05/20 01:41:51;;;;;;;4.97;4.30;;;20.30;97.50;;;;;;5032910;28;20440;-44
2022/05/20 01:44:23;;;;;;;6.00;4.33;;;20.80;98.20;;;;;;5032811;28;20471;-45
2022/05/20 01:46:57;;;;;;;5.37;4.77;;;20.70;98.80;;;;;;5032767;28;20436;-44
2022/05/20 01:49:35;;;;;;;6.97;5.73;;;20.20;98.90;;;;;;5032332;28;20441;-44
2022/05/20 01:52:09;;;;;;;8.40;5.60;;;20.40;99.20;;;;;;5032605;28;20448;-45
2022/05/20 01:54:44;;;;;;;8.10;5.43;;;20.30;99.50;;;;;;5032464;28;20456;-44
2022/05/20 01:57:21;;;;;;;6.60;5.97;;;20.10;99.90;;;;;;5032507;28;20519;-45
2022/05/20 01:59:51;;;;;;;6.83;6.23;;;19.90;99.90;;;;;;5032275;28;20440;-45
2022/05/20 02:02:25;;;;;;;7.67;7.00;;;20.20;99.90;;;;;;5032585;28;20439;-45
2022/05/20 02:04:56;;;;;;;6.37;5.80;;;20.30;99.90;;;;;;5032089;28;20468;-44
2022/05/20 02:07:27;;;;;;;8.13;5.53;;;20.00;99.90;;;;;;5032275;28;20436;-44
2022/05/20 02:09:57;;;;;;;6.20;5.70;;;20.40;99.90;;;;;;5030729;28;20951;-45
2022/05/20 02:12:29;;;;;;;6.40;5.80;;;19.80;99.90;;;;;;5032253;28;20428;-45
2022/05/20 02:15:01;;;;;;;7.70;6.37;;;19.80;99.90;;;;;;5032171;28;20476;-45
2022/05/20 02:17:34;;;;;;;9.87;6.53;;;20.20;99.90;;;;;;5032509;28;20433;-45
2022/05/20 02:20:05;;;;;;;7.90;6.73;;;20.60;99.90;;;;;;5031826;28;20432;-45
2022/05/20 02:22:35;;;;;;;7.60;6.90;;;20.20;99.90;;;;;;5032307;28;20427;-45
2022/05/20 02:25:05;;;;;;;7.73;6.50;;;20.40;99.90;;;;;;5032109;28;20463;-45
2022/05/20 02:27:38;;;;;;;8.70;6.97;;;20.30;99.90;;;;;;5032251;28;20435;-45
2022/05/20 02:30:08;;;;;;;10.03;7.47;;;20.30;99.90;;;;;;5031954;28;20447;-45
2022/05/20 02:32:40;;;;;;;8.00;7.30;;;20.50;99.90;;;;;;5032111;28;20425;-45
2022/05/20 02:35:07;;;;;;;8.33;7.63;;;20.20;99.90;;;;;;5031996;28;20476;-45
2022/05/20 02:37:36;;;;;;;8.70;7.90;;;20.20;99.90;;;;;;5032031;28;20433;-45
2022/05/20 02:40:04;;;;;;;9.10;8.40;;;20.40;99.90;;;;;;5031795;28;20440;-45
2022/05/20 02:42:32;;;;;;;9.90;8.90;;;20.20;99.90;;;;;;5032188;28;20440;-45
2022/05/20 02:45:00;;;;;;;10.80;7.20;;;20.00;99.90;;;;;;5032028;28;20929;-45
2022/05/20 02:47:31;;;;;;;8.63;7.83;;;19.70;99.90;;;;;;5031867;28;20943;-45
2022/05/20 02:49:57;;;;;;;9.10;8.30;;;19.70;99.90;;;;;;5032250;28;20446;-45
2022/05/20 02:52:24;;;;;;;8.67;7.90;;;20.10;99.90;;;;;;5031767;28;20431;-45
2022/05/20 02:54:51;;;;;;;9.50;8.60;;;20.20;99.90;;;;;;5031918;28;20810;-45
2022/05/20 02:57:17;;;;;;;8.83;8.03;;;20.10;99.90;;;;;;5031739;28;20435;-45
2022/05/20 03:05:15;;;;;;;9.73;8.70;;;20.20;99.90;;;;;;5031691;28;20471;-45
2022/05/20 03:07:42;;;;;;;9.97;9.10;;;19.80;99.90;;;;;;5031889;28;20921;-45
2022/05/20 03:10:09;;;;;;;8.87;7.97;;;19.60;99.90;;;;;;5031362;28;20433;-45
2022/05/20 03:12:36;;;;;;;10.47;9.17;;;19.90;99.90;;;;;;5031566;28;20435;-45
2022/05/20 03:15:05;;;;;;;9.10;8.30;;;19.50;99.90;;;;;;5031586;28;20461;-44
2022/05/20 03:17:31;;;;;;;9.20;8.30;;;20.00;99.90;;;;;;5033627;28;20439;-45
2022/05/20 03:19:58;;;;;;;9.13;8.30;;;20.00;99.90;;;;;;5033917;28;20456;-45
2022/05/20 03:22:25;;;;;;;8.93;8.03;;;20.00;99.90;;;;;;5035367;28;20427;-45
2022/05/20 03:24:51;;;;;;;10.17;9.00;;;20.10;99.90;;;;;;5035236;28;20880;-45
2022/05/20 03:27:18;;;;;;;10.57;9.07;;;20.30;99.90;;;;;;5035203;28;20436;-45
2022/05/20 03:29:45;;;;;;;9.03;8.23;;;20.10;99.90;;;;;;5034791;28;20444;-45
2022/05/20 03:32:14;;;;;;;9.40;8.50;;;20.30;99.90;;;;;;5035373;28;20436;-45
2022/05/20 03:34:41;;;;;;;9.83;7.30;;;20.10;99.90;;;;;;5035337;28;20443;-45
2022/05/20 03:37:08;;;;;;;10.40;7.73;;;20.30;99.90;;;;;;5035104;28;20492;-45
2022/05/20 03:39:35;;;;;;;8.37;7.50;;;20.00;99.90;;;;;;5034723;28;20434;-45
2022/05/20 03:42:02;;;;;;;9.70;7.70;;;20.10;99.90;;;;;;5035299;28;20445;-45
2022/05/20 03:44:28;;;;;;;8.20;7.33;;;19.70;99.90;;;;;;5035103;28;20460;-44
2022/05/20 03:46:56;;;;;;;8.57;7.67;;;19.90;99.90;;;;;;5035194;28;20426;-45
2022/05/20 03:49:26;;;;;;;11.63;8.97;;;20.10;99.90;;;;;;5034578;28;20799;-45
2022/05/20 03:51:54;;;;;;;11.47;7.97;;;20.00;99.90;;;;;;5034792;28;20440;-45
2022/05/20 03:54:24;;;;;;;8.40;7.60;;;20.00;99.90;;;;;;5034812;28;20470;-45
2022/05/20 03:56:50;;;;;;;9.47;8.20;;;20.70;99.90;;;;;;5034574;28;20476;-45
2022/05/20 03:59:17;;;;;;;8.90;7.47;;;20.40;99.90;;;;;;5034384;28;21604;-45
2022/05/20 04:01:59;;;;;;;9.17;8.37;;;20.20;99.90;;;;;;5034672;28;20807;-45
2022/05/20 04:04:30;;;;;;;9.30;8.30;;;20.10;99.90;;;;;;5035111;28;20482;-46
2022/05/20 04:06:57;;;;;;;8.97;8.20;;;20.10;99.90;;;;;;5033139;28;20810;-46
2022/05/20 04:09:24;;;;;;;9.47;8.63;;;19.80;99.90;;;;;;5034275;28;20435;-45
2022/05/20 04:11:55;;;;;;;9.13;8.13;;;20.40;99.90;;;;;;5034287;28;20432;-46
2022/05/20 04:14:23;;;;;;;8.40;7.50;;;20.40;99.90;;;;;;5034065;28;21063;-46
2022/05/20 04:16:55;;;;;;;8.43;7.73;;;20.20;99.90;;;;;;5034087;28;20893;-46
2022/05/20 04:19:22;;;;;;;9.63;8.63;;;20.30;99.90;;;;;;5033778;28;20467;-46
2022/05/20 04:21:50;;;;;;;9.10;8.30;;;20.20;99.90;;;;;;5032887;28;20896;-46
2022/05/20 04:24:16;;;;;;;9.60;8.60;;;20.30;99.90;;;;;;5033875;28;20464;-46
2022/05/20 04:26:43;;;;;;;13.90;11.93;;;20.10;99.90;;;;;;5034079;28;20428;-46
2022/05/20 04:29:09;;;;;;;9.03;8.13;;;20.40;99.90;;;;;;5033051;28;20494;-46
2022/05/20 04:31:38;;;;;;;9.20;8.40;;;19.90;99.90;;;;;;5033909;28;20451;-45
2022/05/20 04:34:04;;;;;;;10.13;9.13;;;20.30;99.90;;;;;;5033691;28;20454;-45
2022/05/20 04:36:31;;;;;;;13.13;11.67;;;20.30;99.90;;;;;;5033915;28;20478;-45
2022/05/20 04:38:59;;;;;;;11.50;10.30;;;19.90;99.90;;;;;;5033563;28;20460;-45
2022/05/20 04:47:00;;;;;;;10.93;9.93;;;20.00;99.90;;;;;;5035433;28;20526;-45
2022/05/20 04:49:28;;;;;;;10.67;9.70;;;20.40;99.90;;;;;;5034359;28;20427;-45
2022/05/20 04:51:55;;;;;;;10.23;8.90;;;20.00;99.90;;;;;;5034202;28;20439;-46
2022/05/20 04:57:09;;;;;;;11.33;10.43;;;20.20;99.90;;;;;;5034450;28;20538;-46
2022/05/20 04:59:36;;;;;;;13.07;11.57;;;20.40;99.90;;;;;;5034219;28;20459;-45
2022/05/20 05:02:03;;;;;;;14.63;10.00;;;20.60;99.90;;;;;;5034447;28;20540;-45
2022/05/20 05:04:30;;;;;;;11.40;10.43;;;20.70;99.90;;;;;;5033629;28;20468;-45
2022/05/20 05:06:57;;;;;;;14.27;10.70;;;20.40;99.90;;;;;;5033782;28;20428;-45
2022/05/20 05:09:25;;;;;;;11.93;10.83;;;20.70;99.90;;;;;;5033531;28;20436;-45
2022/05/20 05:11:52;;;;;;;13.10;11.27;;;20.30;99.90;;;;;;5033512;28;20808;-46
2022/05/20 05:14:19;;;;;;;12.50;11.30;;;20.80;99.90;;;;;;5033484;28;20457;-45
2022/05/20 05:21:20;;;;;;;11.73;10.53;;;21.00;99.90;;;;;;5032747;28;20454;-45
2022/05/20 05:23:47;;;;;;;12.23;10.90;;;20.90;99.90;;;;;;5033638;28;20481;-44
2022/05/20 05:26:15;;;;;;;12.80;11.60;;;21.00;99.90;;;;;;5033082;28;20431;-44
2022/05/20 05:28:42;;;;;;;12.70;11.40;;;21.30;99.90;;;;;;5032435;28;20436;-45
2022/05/20 05:31:08;;;;;;;12.07;10.80;;;21.20;99.90;;;;;;5032867;28;20434;-45
2022/05/20 05:33:35;;;;;;;12.80;11.50;;;21.50;99.90;;;;;;5033131;28;20459;-45
2022/05/20 05:36:01;;;;;;;12.90;11.10;;;21.10;99.90;;;;;;5033093;28;21009;-45
2022/05/20 05:38:28;;;;;;;17.33;11.30;;;21.60;99.90;;;;;;5031861;28;20441;-46
2022/05/20 05:40:55;;;;;;;13.40;12.20;;;21.80;99.90;;;;;;5032824;28;20438;-44
2022/05/20 05:43:23;;;;;;;12.90;11.70;;;21.70;99.90;;;;;;5032541;28;20466;-45
2022/05/20 05:45:49;;;;;;;15.80;12.10;;;21.30;99.90;;;;;;5032018;28;20446;-46
2022/05/20 05:48:17;;;;;;;14.10;12.60;;;21.80;99.90;;;;;;5031076;28;20461;-45
2022/05/20 05:50:45;;;;;;;14.30;13.10;;;21.90;99.90;;;;;;5031991;28;20794;-45
2022/05/20 05:53:13;;;;;;;12.87;11.63;;;22.00;99.90;;;;;;5033211;28;20446;-46
2022/05/20 05:55:42;;;;;;;13.07;11.83;;;22.00;99.90;;;;;;5032644;28;20440;-45
2022/05/20 05:58:09;;;;;;;12.00;10.80;;;22.20;99.90;;;;;;5032544;28;20439;-45
2022/05/20 06:00:37;;;;;;;13.80;12.50;;;22.10;99.90;;;;;;5032082;28;20442;-46
2022/05/20 06:03:04;;;;;;;13.87;12.23;;;22.10;99.90;;;;;;5031589;28;20435;-45
2022/05/20 06:05:31;;;;;;;13.30;11.90;;;22.30;99.90;;;;;;5031941;28;20439;-45
2022/05/20 06:07:59;;;;;;;12.27;11.00;;;22.30;99.90;;;;;;5031936;28;20439;-46
2022/05/20 06:10:26;;;;;;;14.17;11.70;;;22.30;99.90;;;;;;5031153;28;20469;-46
2022/05/20 06:12:53;;;;;;;11.63;10.53;;;22.40;99.90;;;;;;5031637;28;20438;-45
2022/05/20 06:15:22;;;;;;;12.00;10.70;;;22.30;99.80;;;;;;5032087;28;20530;-46
2022/05/20 06:17:50;;;;;;;11.70;10.50;;;22.20;99.70;;;;;;5031799;28;20565;-45
2022/05/20 06:20:17;;;;;;;13.17;11.90;;;22.40;99.80;;;;;;5031962;28;20433;-47
2022/05/20 06:22:44;;;;;;;12.90;11.50;;;22.10;99.60;;;;;;5031787;28;20450;-44
2022/05/20 06:25:12;;;;;;;12.00;10.80;;;21.80;99.30;;;;;;5031481;28;20527;-46
2022/05/20 06:27:39;;;;;;;13.63;12.10;;;21.70;99.10;;;;;;5031724;28;20447;-46
2022/05/20 06:30:08;;;;;;;11.83;10.00;;;21.90;99.00;;;;;;5031215;28;20435;-46
2022/05/20 06:32:35;;;;;;;12.63;11.33;;;22.00;98.90;;;;;;5031316;28;20440;-45
2022/05/20 06:40:35;;;;;;;15.30;9.70;;;22.00;98.20;;;;;;5031303;28;20442;-45
2022/05/20 06:43:01;;;;;;;11.53;10.20;;;22.00;97.60;;;;;;5031514;28;20458;-45
2022/05/20 06:45:31;;;;;;;13.10;11.63;;;21.90;97.40;;;;;;5031406;28;20450;-46
2022/05/20 06:47:58;;;;;;;10.33;9.40;;;22.20;97.40;;;;;;5031543;28;20442;-45
2022/05/20 06:50:26;;;;;;;10.13;9.13;;;22.20;97.30;;;;;;5031566;28;20436;-44
2022/05/20 06:52:52;;;;;;;14.50;11.33;;;22.00;97.10;;;;;;5034127;28;20431;-46
2022/05/20 06:55:19;;;;;;;11.87;9.67;;;22.40;97.20;;;;;;5035254;28;20450;-46
2022/05/20 06:57:46;;;;;;;14.87;12.03;;;22.50;97.10;;;;;;5035050;28;20503;-47
2022/05/20 07:00:13;;;;;;;11.07;9.93;;;22.40;96.80;;;;;;5035037;28;20940;-44
2022/05/20 07:02:40;;;;;;;12.60;11.00;;;22.80;96.80;;;;;;5035313;28;20535;-46
2022/05/20 07:05:09;;;;;;;18.00;10.57;;;22.70;96.60;;;;;;5035322;28;20551;-46
2022/05/20 07:07:38;;;;;;;21.03;10.30;;;22.60;96.50;;;;;;5035274;28;20471;-46
2022/05/20 07:10:06;;;;;;;9.37;8.57;;;22.80;96.50;;;;;;5034196;28;20428;-45
2022/05/20 07:12:33;;;;;;;9.40;8.40;;;22.70;96.30;;;;;;5034803;28;21003;-47
2022/05/20 07:15:00;;;;;;;12.07;8.93;;;22.90;96.10;;;;;;5034942;28;20483;-46
2022/05/20 07:17:28;;;;;;;9.57;7.63;;;23.10;96.00;;;;;;5034832;28;20479;-47
2022/05/20 07:19:55;;;;;;;9.37;8.47;;;23.30;95.50;;;;;;5034629;28;20525;-46
2022/05/20 07:22:21;;;;;;;9.27;7.13;;;23.20;94.80;;;;;;5035132;28;20444;-45
2022/05/20 07:24:49;;;;;;;8.80;8.00;;;23.60;94.70;;;;;;5034816;28;20469;-45
2022/05/20 07:27:16;;;;;;;7.80;7.00;;;23.50;93.80;;;;;;5034508;28;20449;-46
2022/05/20 07:29:44;;;;;;;10.93;7.47;;;23.60;93.70;;;;;;5034361;28;20445;-46
2022/05/20 07:32:10;;;;;;;7.87;7.03;;;23.60;93.30;;;;;;5034507;28;20449;-46
2022/05/20 07:34:37;;;;;;;9.10;6.57;;;23.60;93.00;;;;;;5033130;28;20665;-46
2022/05/20 07:37:05;;;;;;;8.43;7.73;;;23.60;92.80;;;;;;5034848;28;20477;-46
2022/05/20 07:39:32;;;;;;;7.80;7.07;;;23.50;92.40;;;;;;5034306;28;20479;-46
2022/05/20 07:42:00;;;;;;;8.97;7.73;;;23.50;92.30;;;;;;5034273;28;20441;-46
2022/05/20 07:44:27;;;;;;;11.40;5.97;;;23.50;92.20;;;;;;5034848;28;20446;-47
2022/05/20 07:46:54;;;;;;;9.03;6.37;;;23.50;92.10;;;;;;5034507;28;20444;-47
2022/05/20 07:49:20;;;;;;;7.43;5.80;;;23.40;92.00;;;;;;5034167;28;20431;-45
2022/05/20 07:51:51;;;;;;;6.50;5.73;;;23.50;91.80;;;;;;5033261;28;21002;-47
2022/05/20 07:54:23;;;;;;;7.77;6.97;;;23.40;91.40;;;;;;5036734;28;20744;-46
2022/05/20 08:00:39;;;;;;;8.03;6.20;;;23.60;90.90;;;;;;5034050;28;20863;-45
2022/05/20 08:03:08;;;;;;;9.77;5.90;;;23.70;91.10;;;;;;5032400;28;20439;-46
2022/05/20 08:05:35;;;;;;;8.50;5.77;;;23.60;90.80;;;;;;5034169;28;20451;-45
2022/05/20 08:08:03;;;;;;;6.00;4.93;;;23.60;90.60;;;;;;5034486;28;20469;-46
2022/05/20 08:10:33;;;;;;;7.17;6.57;;;23.60;90.40;;;;;;5033953;28;20434;-45
2022/05/20 08:13:00;;;;;;;8.47;6.10;;;23.50;90.30;;;;;;5034371;28;20432;-45
2022/05/20 08:15:28;;;;;;;5.00;4.60;;;23.50;90.30;;;;;;5033947;28;20438;-45
2022/05/20 08:17:56;;;;;;;6.83;4.27;;;23.50;90.10;;;;;;5033983;28;20509;-46
2022/05/20 08:20:28;;;;;;;6.43;4.60;;;23.40;89.20;;;;;;5033763;28;20437;-45
2022/05/20 08:22:56;;;;;;;6.53;5.50;;;23.50;88.10;;;;;;5033960;28;20496;-46
2022/05/20 08:25:24;;;;;;;6.47;4.70;;;23.50;88.40;;;;;;5034281;28;20439;-46
2022/05/20 08:27:50;;;;;;;5.33;4.33;;;23.70;88.90;;;;;;5033849;28;20439;-46
2022/05/20 08:30:20;;;;;;;10.03;4.80;;;23.50;88.60;;;;;;5033880;28;20993;-45
2022/05/20 08:32:47;;;;;;;9.37;5.50;;;23.60;88.80;;;;;;5034873;28;20627;-46
2022/05/20 08:35:15;;;;;;;8.80;4.70;;;23.20;88.20;;;;;;5034495;28;20575;-44
2022/05/20 08:37:46;;;;;;;7.20;5.70;;;23.50;88.80;;;;;;5033259;28;20509;-45
2022/05/20 08:40:18;;;;;;;6.23;5.03;;;23.60;89.00;;;;;;5034267;28;20894;-46
2022/05/20 08:42:45;;;;;;;5.53;4.93;;;23.50;88.60;;;;;;5033625;28;20831;-46
2022/05/20 08:45:15;;;;;;;7.60;4.60;;;23.40;88.40;;;;;;5034404;28;20460;-44
2022/05/20 08:47:45;;;;;;;6.63;3.60;;;23.40;87.70;;;;;;5033005;28;20477;-45
2022/05/20 08:50:18;;;;;;;6.67;4.80;;;23.40;87.10;;;;;;5033755;28;20855;-45
2022/05/20 08:52:45;;;;;;;6.00;4.60;;;23.40;86.40;;;;;;5032365;28;20453;-46
2022/05/20 08:55:15;;;;;;;5.20;4.70;;;23.40;86.40;;;;;;5032424;28;20472;-46
2022/05/20 08:57:47;;;;;;;5.50;3.90;;;23.00;86.00;;;;;;5032278;28;20539;-46
2022/05/20 09:00:15;;;;;;;7.23;4.13;;;23.50;86.70;;;;;;5032083;28;20511;-44
2022/05/20 09:02:41;;;;;;;5.57;4.00;;;23.50;86.40;;;;;;5033068;28;20437;-46
2022/05/20 09:05:19;;;;;;;6.83;4.10;;;23.60;86.30;;;;;;5031522;28;20564;-46
2022/05/20 09:08:00;;;;;;;4.83;3.27;;;23.90;86.30;;;;;;5031722;28;20449;-45
2022/05/20 09:10:33;;;;;;;9.03;4.20;;;23.60;85.30;;;;;;5012964;28;20430;-45
2022/05/20 09:13:12;;;;;;;5.30;3.60;;;23.60;85.50;;;;;;5011470;28;20983;-47
2022/05/20 09:15:44;;;;;;;4.20;3.77;;;23.60;83.20;;;;;;5012690;28;20444;-46
2022/05/20 09:18:30;;;;;;;4.53;3.50;;;23.60;83.60;;;;;;5012772;28;20506;-46
2022/05/20 09:20:58;;;;;;;4.83;4.03;;;23.20;82.70;;;;;;5013057;28;20593;-46
2022/05/20 09:23:26;;;;;;;3.70;3.30;;;24.00;83.70;;;;;;5013558;28;20465;-45
2022/05/20 09:26:04;;;;;;;6.10;3.77;;;23.60;82.80;;;;;;5020112;28;21032;-46
2022/05/20 09:28:37;;;;;;;8.73;4.00;;;23.60;82.40;;;;;;5032677;28;20433;-46
2022/05/20 09:31:16;;;;;;;5.13;3.57;;;23.70;82.50;;;;;;5032656;28;20591;-46
2022/05/20 09:33:51;;;;;;;4.67;3.73;;;23.70;82.50;;;;;;5031927;28;20470;-46
2022/05/20 09:36:43;;;;;;;6.30;3.30;;;24.30;81.60;;;;;;5015435;28;20434;-46
2022/05/20 09:39:13;;;;;;;4.63;3.13;;;23.80;80.40;;;;;;5032001;28;20454;-45
2022/05/20 09:41:52;;;;;;;4.40;3.50;;;23.80;80.30;;;;;;5032456;28;20442;-45
2022/05/20 09:44:23;;;;;;;5.97;3.83;;;23.90;79.80;;;;;;5032323;28;20515;-45
2022/05/20 09:46:53;;;;;;;5.90;3.40;;;23.90;79.80;;;;;;5032697;28;20510;-47
2022/05/20 09:49:38;;;;;;;7.03;4.13;;;24.00;79.50;;;;;;5031247;28;20599;-45
2022/05/20 09:52:18;;;;;;;5.93;3.47;;;24.10;79.40;;;;;;5031928;28;20447;-46
2022/05/20 09:54:50;;;;;;;5.87;3.90;;;24.00;77.80;;;;;;5032128;28;20473;-45
2022/05/20 09:57:23;;;;;;;4.83;3.40;;;24.00;77.90;;;;;;5032068;28;21034;-46
2022/05/20 09:59:54;;;;;;;5.30;3.60;;;23.80;77.80;;;;;;5025812;28;20467;-46
2022/05/20 10:02:27;;;;;;;7.37;3.90;;;23.90;78.10;;;;;;5012559;28;20443;-45
2022/05/20 10:05:01;;;;;;;6.00;3.80;;;23.80;77.90;;;;;;5013321;28;20470;-45
2022/05/20 10:07:43;;;;;;;4.43;3.30;;;23.70;77.30;;;;;;5026024;28;20442;-44
2022/05/20 10:10:15;;;;;;;6.00;3.27;;;23.90;75.90;;;;;;5031731;28;20437;-45
2022/05/20 10:12:46;;;;;;;5.07;2.70;;;23.90;76.00;;;;;;5032178;28;20581;-45
2022/05/20 10:15:19;;;;;;;2.97;2.60;;;24.00;74.30;;;;;;5032228;28;20453;-44
2022/05/20 10:18:00;;;;;;;5.30;3.40;;;24.00;73.90;;;;;;5031765;28;20475;-46
2022/05/20 10:20:32;;;;;;;3.60;3.00;;;24.10;73.60;;;;;;5031257;28;20439;-44
2022/05/20 10:23:07;;;;;;;4.73;3.37;;;24.20;73.30;;;;;;5031568;28;20465;-44
2022/05/20 10:25:39;;;;;;;5.10;2.83;;;24.10;72.30;;;;;;5032421;28;20430;-45
2022/05/20 10:33:52;;;;;;;4.67;2.80;;;24.10;72.00;;;;;;5031828;28;20458;-45
2022/05/20 10:36:23;;;;;;;4.23;3.10;;;24.10;72.20;;;;;;5031741;28;20435;-44
2022/05/20 10:38:59;;;;;;;5.13;3.07;;;24.10;72.20;;;;;;5031267;28;20482;-45
2022/05/20 10:41:50;;;;;;;4.70;3.07;;;24.20;69.90;;;;;;5031736;28;20794;-45
2022/05/20 10:50:18;;;;;;;4.07;3.63;;;24.20;68.20;;;;;;5031441;28;20465;-46
2022/05/20 10:53:06;;;;;;;3.10;2.77;;;24.20;68.40;;;;;;5031693;28;20446;-46
2022/05/20 10:55:58;;;;;;;3.03;2.50;;;24.30;67.60;;;;;;5031790;28;20767;-44
2022/05/20 10:59:04;;;;;;;4.07;2.97;;;24.40;67.70;;;;;;5031835;28;20483;-45
2022/05/20 11:01:42;;;;;;;3.70;2.53;;;24.40;67.70;;;;;;5031718;28;20435;-45
2022/05/20 11:04:28;;;;;;;4.03;2.97;;;24.30;67.60;;;;;;5031790;28;20462;-45
2022/05/20 11:07:28;;;;;;;2.97;2.63;;;24.30;66.50;;;;;;5031198;28;20446;-45
2022/05/20 11:10:05;;;;;;;5.27;2.30;;;24.30;66.60;;;;;;5031353;28;20438;-45
2022/05/20 11:12:43;;;;;;;3.97;2.53;;;24.00;66.40;;;;;;5031380;28;20423;-45
2022/05/20 11:15:38;;;;;;;4.50;2.90;;;24.40;64.20;;;;;;5031475;28;20456;-46
2022/05/20 11:18:24;;;;;;;4.30;2.63;;;24.50;62.70;;;;;;5031868;28;20485;-46
2022/05/20 11:21:29;;;;;;;3.80;2.90;;;24.40;63.50;;;;;;5031185;28;20589;-45
2022/05/20 11:24:33;;;;;;;4.00;2.70;;;24.50;63.90;;;;;;4989778;28;20849;-45
2022/05/20 11:27:16;;;;;;;6.10;2.60;;;24.50;64.40;;;;;;4989570;28;20456;-45
2022/05/20 11:30:15;;;;;;;3.40;3.10;;;24.50;64.90;;;;;;4972697;28;20535;-45
2022/05/20 11:33:06;;;;;;;3.37;3.00;;;24.50;65.60;;;;;;5020464;28;20501;-45
2022/05/20 11:35:41;;;;;;;10.63;4.07;;;24.50;65.10;;;;;;5031545;28;20866;-46
2022/05/20 11:38:25;;;;;;;2.23;2.03;;;24.40;65.40;;;;;;5032618;28;20487;-46
2022/05/20 11:41:11;;;;;;;7.47;3.17;;;24.50;65.10;;;;;;5035259;28;20477;-45
2022/05/20 11:44:01;;;;;;;4.67;3.10;;;24.50;65.40;;;;;;5034529;28;20968;-46
2022/05/20 11:46:43;;;;;;;7.37;3.47;;;24.50;66.70;;;;;;5034439;28;21004;-44
2022/05/20 11:49:24;;;;;;;7.43;2.97;;;24.50;67.40;;;;;;5034080;28;21033;-46
2022/05/20 11:52:11;;;;;;;9.07;3.27;;;24.60;67.10;;;;;;5034206;28;20427;-47
2022/05/20 11:54:43;;;;;;;4.80;3.00;;;24.60;67.30;;;;;;5033773;28;20463;-44
2022/05/20 11:57:14;;;;;;;4.33;2.80;;;24.60;67.40;;;;;;5034496;28;20824;-44
2022/05/20 11:59:48;;;;;;;4.67;2.90;;;24.60;67.50;;;;;;5029934;28;21062;-45
2022/05/20 12:02:17;;;;;;;7.80;3.23;;;24.60;66.80;;;;;;5012584;28;20545;-44
2022/05/20 12:04:45;;;;;;;5.90;3.93;;;24.70;67.20;;;;;;5013910;28;20475;-45
2022/05/20 12:07:14;;;;;;;5.63;3.60;;;24.80;67.80;;;;;;5014295;28;20448;-45
2022/05/20 12:09:43;;;;;;;4.63;2.93;;;24.80;66.80;;;;;;5013910;28;20443;-44
2022/05/20 12:12:27;;;;;;;5.20;2.70;;;24.80;66.80;;;;;;5014386;28;20440;-44
2022/05/20 12:15:02;;;;;;;4.70;3.10;;;24.90;66.80;;;;;;5014402;28;20973;-46
2022/05/20 12:17:32;;;;;;;6.37;3.97;;;24.50;66.50;;;;;;5014045;28;20536;-45
2022/05/20 12:26:15;;;;;;;4.13;2.80;;;25.00;64.50;;;;;;4956446;28;20450;-44
2022/05/20 12:28:41;;;;;;;5.20;3.37;;;25.00;63.80;;;;;;5006390;28;20551;-45
2022/05/20 12:31:11;;;;;;;7.57;4.57;;;25.10;63.70;;;;;;5012610;28;20543;-45
2022/05/20 12:33:54;;;;;;;4.87;3.00;;;25.10;64.00;;;;;;5012608;28;20482;-46
2022/05/20 12:36:35;;;;;;;3.60;2.53;;;25.20;64.30;;;;;;5013978;28;20487;-45
2022/05/20 12:39:18;;;;;;;3.43;2.40;;;25.20;61.10;;;;;;5012130;28;20567;-44
2022/05/20 12:42:01;;;;;;;3.77;2.47;;;25.20;59.50;;;;;;5026456;28;20506;-46
2022/05/20 12:44:35;;;;;;;5.10;2.60;;;25.20;59.60;;;;;;5033234;28;20524;-45
2022/05/20 12:47:28;;;;;;;3.97;2.17;;;25.30;60.10;;;;;;5033311;28;20435;-44
2022/05/20 12:50:06;;;;;;;4.77;2.97;;;25.30;60.50;;;;;;5027669;28;20952;-44
2022/05/20 12:52:35;;;;;;;5.23;2.70;;;25.40;60.90;;;;;;5032121;28;20534;-45
2022/05/20 12:55:13;;;;;;;2.77;1.83;;;25.40;59.80;;;;;;5031638;28;20533;-44
2022/05/20 12:57:50;;;;;;;5.33;2.40;;;25.40;57.70;;;;;;5033456;28;20808;-46
2022/05/20 13:00:28;;;;;;;5.47;4.47;;;25.50;57.20;;;;;;5024054;28;20443;-45
2022/05/20 13:02:56;;;;;;;5.97;2.63;;;25.50;57.40;;;;;;5012927;28;20534;-44
2022/05/20 13:05:31;;;;;;;3.07;2.50;;;25.50;57.60;;;;;;5013258;28;20628;-44
2022/05/20 13:07:59;;;;;;;3.40;1.70;;;25.50;57.40;;;;;;5012999;28;20463;-45
2022/05/20 13:10:30;;;;;;;6.13;2.17;;;25.60;56.00;;;;;;5011220;28;20803;-46
2022/05/20 13:13:03;;;;;;;4.00;2.20;;;26.20;56.00;;;;;;5013006;28;20491;-46
2022/05/20 13:15:30;;;;;;;6.33;2.13;;;25.80;55.90;;;;;;5012724;28;20444;-46
2022/05/20 13:18:03;;;;;;;3.70;2.80;;;25.90;56.10;;;;;;5011134;28;20449;-45
2022/05/20 13:20:33;;;;;;;2.20;1.90;;;25.90;55.10;;;;;;5012912;28;20443;-44
2022/05/20 13:23:03;;;;;;;2.27;1.67;;;26.00;54.30;;;;;;5011519;28;20561;-44
2022/05/20 13:25:30;;;;;;;4.70;2.50;;;26.10;54.00;;;;;;5012645;28;20436;-45
2022/05/20 13:27:58;;;;;;;5.23;2.50;;;26.30;53.40;;;;;;5012858;28;20594;-45
2022/05/20 13:30:27;;;;;;;4.07;2.20;;;26.40;52.80;;;;;;5012323;28;20446;-46
2022/05/20 13:33:01;;;;;;;2.40;1.83;;;26.50;52.90;;;;;;5013010;28;20442;-45
2022/05/20 13:35:27;;;;;;;3.33;1.80;;;26.60;53.30;;;;;;5012913;28;20455;-45
2022/05/20 13:37:59;;;;;;;2.47;1.60;;;26.60;52.50;;;;;;5012564;28;20444;-45
2022/05/20 13:40:31;;;;;;;3.63;1.67;;;26.70;51.40;;;;;;5016047;28;20785;-45
2022/05/20 13:42:59;;;;;;;6.70;3.00;;;26.50;50.60;;;;;;5032347;28;20472;-45
2022/05/20 13:51:02;;;;;;;3.83;2.47;;;26.80;49.80;;;;;;5031787;28;20438;-46
2022/05/20 13:53:31;;;;;;;4.93;2.03;;;26.80;50.00;;;;;;5031878;28;20571;-45
2022/05/20 13:55:58;;;;;;;2.67;1.60;;;26.90;50.00;;;;;;5032732;28;20440;-45